< < Back
Terminal Aerodrome Forecast


Current Version              Previous Versions:   1  2  3  4  5  6  7  8  9  

Terminal Aerodrome Forecast

578
FTUS42 KCAE 201700 CCA
TAFAGS
TAF COR
KAGS 201756Z 2018/2118 VRB03KT P6SM OVC006
      TEMPO 2018/2022 4SM BR OVC004
     FM210600 VRB03KT 2SM BR OVC004
     FM211300 VRB03KT 5SM BR OVC008
     FM211600 05004KT P6SM BKN015=



Latest METAR

989
SAUS70 KWBC 202200
MTRAGS
METAR KAGS 202153Z 03008KT 5SM BR OVC009 11/09 A3018 RMK AO2 SLP218
T01110094


USA.gov is the U.S. government's official web portal to all federal, state and local government web resources and services.